createdAt,value
2019-01-23T00:01:52.812Z,59.60
2019-01-23T00:04:33.429Z,59.60
2019-01-23T00:07:13.709Z,60.00
2019-01-23T00:09:53.641Z,59.20
2019-01-23T00:12:33.665Z,59.70
2019-01-23T00:15:15.940Z,59.50
2019-01-23T00:17:55.943Z,60.20
2019-01-23T00:20:36.073Z,60.10
2019-01-23T00:23:16.146Z,60.10
2019-01-23T00:25:56.061Z,60.10
2019-01-23T00:28:42.215Z,60.20
2019-01-23T00:31:18.208Z,60.10
2019-01-23T00:33:58.205Z,60.20
2019-01-23T00:36:41.273Z,60.00
2019-01-23T00:39:22.341Z,60.20
2019-01-23T00:42:02.347Z,60.20
2019-01-23T00:44:42.349Z,60.10
2019-01-23T00:47:22.477Z,60.30
2019-01-23T00:50:02.552Z,60.20
2019-01-23T00:52:42.624Z,60.20
2019-01-23T00:55:22.693Z,60.30
2019-01-23T00:58:02.700Z,60.40
2019-01-23T01:00:42.945Z,60.20
2019-01-23T01:03:10.696Z,60.30
2019-01-23T01:05:57.824Z,59.30
2019-01-23T01:08:38.064Z,59.30
2019-01-23T01:11:18.165Z,59.80
2019-01-23T01:13:58.325Z,60.50
2019-01-23T01:16:38.681Z,60.50
2019-01-23T01:19:19.957Z,60.00
2019-01-23T01:22:00.140Z,60.00
2019-01-23T01:24:40.534Z,59.70
2019-01-23T01:27:20.604Z,60.00
2019-01-23T01:30:01.054Z,59.50
2019-01-23T01:32:40.958Z,59.60
2019-01-23T01:35:21.393Z,59.50
2019-01-23T01:38:02.017Z,58.70
2019-01-23T01:40:41.997Z,58.30
2019-01-23T01:43:22.121Z,58.20
2019-01-23T01:46:02.252Z,57.20
2019-01-23T01:48:42.092Z,57.20
2019-01-23T01:51:22.195Z,56.80
2019-01-23T01:54:02.429Z,56.80
2019-01-23T01:56:42.611Z,55.90
2019-01-23T01:59:22.729Z,56.50
2019-01-23T02:02:02.845Z,56.60
2019-01-23T02:04:43.073Z,56.40
2019-01-23T02:07:23.077Z,56.80
2019-01-23T02:10:03.097Z,55.80
2019-01-23T02:12:43.970Z,56.60
2019-01-23T02:15:23.997Z,56.40
2019-01-23T02:18:04.113Z,56.50
2019-01-23T02:20:44.432Z,56.20
2019-01-23T02:23:24.661Z,56.80
2019-01-23T02:26:05.103Z,57.30
2019-01-23T02:28:45.152Z,57.20
2019-01-23T02:31:25.117Z,56.90
2019-01-23T02:34:05.132Z,56.10
2019-01-23T02:36:48.915Z,56.40
2019-01-23T02:39:30.582Z,56.00
2019-01-23T02:42:10.653Z,55.70
2019-01-23T02:44:51.004Z,55.50
2019-01-23T02:47:31.064Z,54.70
2019-01-23T02:50:11.404Z,54.70
2019-01-23T02:52:51.517Z,55.20
2019-01-23T02:55:31.630Z,55.00
2019-01-23T02:58:11.769Z,55.20
2019-01-23T03:00:52.059Z,54.40
2019-01-23T03:03:31.938Z,54.10
2019-01-23T03:06:11.945Z,53.70
2019-01-23T03:08:52.014Z,53.70
2019-01-23T03:11:31.938Z,53.80
2019-01-23T03:13:59.565Z,53.30
2019-01-23T03:16:39.905Z,53.50
2019-01-23T03:19:20.057Z,52.80
2019-01-23T03:22:00.104Z,53.30
2019-01-23T03:24:40.222Z,52.70
2019-01-23T03:27:20.577Z,52.10
2019-01-23T03:30:00.736Z,52.10
2019-01-23T03:32:40.708Z,52.50
2019-01-23T03:35:20.804Z,52.20
2019-01-23T03:38:04.665Z,51.90
2019-01-23T03:40:45.303Z,51.80
2019-01-23T03:43:25.296Z,51.40
2019-01-23T03:46:05.528Z,51.60
2019-01-23T03:48:45.661Z,51.70
2019-01-23T03:51:25.954Z,52.30
2019-01-23T03:54:06.117Z,52.40
2019-01-23T03:56:46.236Z,52.70
2019-01-23T03:59:32.187Z,52.90
2019-01-23T04:02:08.433Z,53.20
2019-01-23T04:04:48.480Z,53.50
2019-01-23T04:07:28.544Z,53.70
2019-01-23T04:10:08.753Z,53.70
2019-01-23T04:12:48.932Z,53.50
2019-01-23T04:15:28.970Z,53.60
2019-01-23T04:18:09.032Z,53.60
2019-01-23T04:20:49.331Z,53.80
2019-01-23T04:23:29.244Z,54.10
2019-01-23T04:26:09.294Z,53.80
2019-01-23T04:28:49.276Z,53.70
2019-01-23T04:31:29.485Z,53.30
2019-01-23T04:34:10.276Z,53.30
2019-01-23T04:36:50.419Z,53.10
2019-01-23T04:39:33.937Z,53.60
2019-01-23T04:42:14.011Z,53.60
2019-01-23T04:44:54.121Z,53.40
2019-01-23T04:47:34.252Z,53.20
2019-01-23T04:50:14.104Z,53.20
2019-01-23T04:55:52.649Z,53.60
2019-01-23T04:58:32.833Z,53.50
2019-01-23T05:01:12.979Z,53.10
2019-01-23T05:03:52.970Z,52.80
2019-01-23T05:06:33.262Z,53.60
2019-01-23T05:09:13.194Z,53.30
2019-01-23T05:11:53.324Z,53.10
2019-01-23T05:14:33.332Z,53.00
2019-01-23T05:17:13.440Z,53.00
2019-01-23T05:19:53.797Z,53.10
2019-01-23T05:22:33.969Z,52.90
2019-01-23T05:25:13.889Z,53.20
2019-01-23T05:27:53.911Z,52.80
2019-01-23T05:30:34.236Z,52.30
2019-01-23T05:33:14.270Z,52.30
2019-01-23T05:35:54.233Z,52.50
2019-01-23T05:38:21.948Z,52.80
2019-01-23T05:41:02.073Z,52.50
2019-01-23T05:43:45.866Z,52.40
2019-01-23T05:46:26.443Z,52.20
2019-01-23T05:49:06.647Z,52.50
2019-01-23T05:51:46.773Z,52.80
2019-01-23T05:54:27.896Z,53.00
2019-01-23T05:57:07.877Z,52.20
2019-01-23T05:59:47.913Z,52.10
2019-01-23T06:02:27.928Z,52.40
2019-01-23T06:05:07.974Z,52.50
2019-01-23T06:07:48.285Z,52.60
2019-01-23T06:10:28.298Z,52.80
2019-01-23T06:13:08.356Z,53.40
2019-01-23T06:15:48.656Z,53.30
2019-01-23T06:18:28.737Z,53.10
2019-01-23T06:21:08.823Z,53.10
2019-01-23T06:23:49.001Z,53.30
2019-01-23T06:26:29.121Z,53.50
2019-01-23T06:29:09.248Z,52.90
2019-01-23T06:31:49.521Z,53.00
2019-01-23T06:34:29.690Z,53.50
2019-01-23T06:37:09.894Z,53.50
2019-01-23T06:39:49.908Z,53.40
2019-01-23T06:42:29.888Z,53.20
2019-01-23T06:44:57.559Z,53.30
2019-01-23T06:47:41.141Z,53.10
2019-01-23T06:50:22.125Z,53.50
2019-01-23T06:53:02.346Z,53.60
2019-01-23T06:55:42.518Z,53.30
2019-01-23T06:58:22.734Z,53.10
2019-01-23T07:01:02.895Z,53.30
2019-01-23T07:03:42.629Z,53.50
2019-01-23T07:06:22.861Z,53.30
2019-01-23T07:09:03.938Z,53.20
2019-01-23T07:11:45.282Z,52.80
2019-01-23T07:14:25.292Z,52.20
2019-01-23T07:17:05.374Z,51.90
2019-01-23T07:19:45.539Z,51.60
2019-01-23T07:22:25.948Z,51.80
2019-01-23T07:25:05.846Z,52.00
2019-01-23T07:27:45.994Z,52.20
2019-01-23T07:30:26.123Z,51.90
2019-01-23T07:33:06.081Z,52.30
2019-01-23T07:35:46.288Z,52.00
2019-01-23T07:38:26.521Z,51.70
2019-01-23T07:41:06.741Z,52.10
2019-01-23T07:43:46.805Z,51.80
2019-01-23T07:46:26.991Z,51.50
2019-01-23T07:49:07.095Z,51.50
2019-01-23T07:51:47.080Z,50.40
2019-01-23T07:54:27.223Z,51.30
2019-01-23T07:57:07.312Z,51.30
2019-01-23T07:59:47.714Z,51.60
2019-01-23T08:02:27.573Z,51.60
2019-01-23T08:05:07.802Z,51.50
2019-01-23T08:07:47.793Z,50.40
2019-01-23T08:10:28.032Z,50.70
2019-01-23T08:13:07.870Z,50.40
2019-01-23T08:15:48.130Z,50.60
2019-01-23T08:18:27.976Z,50.70
2019-01-23T08:21:08.048Z,50.90
2019-01-23T08:23:48.213Z,51.30
2019-01-23T08:26:28.253Z,50.70
2019-01-23T08:29:08.345Z,49.70
2019-01-23T08:31:48.472Z,50.10
2019-01-23T08:34:28.587Z,50.80
2019-01-23T08:37:08.802Z,50.40
2019-01-23T08:39:49.174Z,49.50
2019-01-23T08:42:29.817Z,49.50
2019-01-23T08:45:10.032Z,49.50
2019-01-23T08:47:50.021Z,50.20
2019-01-23T08:50:33.748Z,49.60
2019-01-23T08:53:14.243Z,49.70
2019-01-23T08:55:54.199Z,49.70
2019-01-23T08:58:34.389Z,49.10
2019-01-23T09:01:14.432Z,49.70
2019-01-23T09:03:54.521Z,49.70
2019-01-23T09:06:34.368Z,49.10
2019-01-23T09:09:14.300Z,48.80
2019-01-23T09:11:54.521Z,49.80
2019-01-23T09:14:34.765Z,49.70
2019-01-23T09:17:14.881Z,49.70
2019-01-23T09:19:54.911Z,49.60
2019-01-23T09:22:34.977Z,49.80
2019-01-23T09:25:14.951Z,49.90
2019-01-23T09:27:55.233Z,49.80
2019-01-23T09:30:35.356Z,49.60
2019-01-23T09:33:15.581Z,49.90
2019-01-23T09:35:55.813Z,49.20
2019-01-23T09:38:36.005Z,49.30
2019-01-23T09:41:17.262Z,49.30
2019-01-23T09:43:58.242Z,49.50
2019-01-23T09:46:38.165Z,49.60
2019-01-23T09:49:18.425Z,48.70
2019-01-23T09:52:02.570Z,48.80
2019-01-23T09:54:43.036Z,47.80
2019-01-23T09:57:24.225Z,48.60
2019-01-23T10:00:04.470Z,48.50
2019-01-23T10:02:45.451Z,47.90
2019-01-23T10:05:25.553Z,48.20
2019-01-23T10:08:05.509Z,47.70
2019-01-23T10:10:45.614Z,47.80
2019-01-23T10:13:25.596Z,47.70
2019-01-23T10:16:05.591Z,48.20
2019-01-23T10:18:45.969Z,47.90
2019-01-23T10:21:25.741Z,48.50
2019-01-23T10:24:05.948Z,48.20
2019-01-23T10:26:47.395Z,47.30
2019-01-23T10:29:27.453Z,48.10
2019-01-23T10:32:07.501Z,48.10
2019-01-23T10:34:47.530Z,48.10
2019-01-23T10:37:27.613Z,47.70
2019-01-23T10:40:07.550Z,47.00
2019-01-23T10:42:47.591Z,47.10
2019-01-23T10:45:27.639Z,47.20
2019-01-23T10:48:07.729Z,48.60
2019-01-23T10:50:47.676Z,47.90
2019-01-23T10:53:27.821Z,47.10
2019-01-23T10:56:08.274Z,46.60
2019-01-23T10:58:48.222Z,47.40
2019-01-23T11:01:28.375Z,47.40
2019-01-23T11:04:08.728Z,47.40
2019-01-23T11:06:49.877Z,47.90
2019-01-23T11:09:30.257Z,48.10
2019-01-23T11:12:10.552Z,48.20
2019-01-23T11:14:50.652Z,47.90
2019-01-23T11:17:30.899Z,47.00
2019-01-23T11:20:11.069Z,47.50
2019-01-23T11:22:52.125Z,47.50
2019-01-23T11:25:32.113Z,47.60
2019-01-23T11:28:12.282Z,46.80
2019-01-23T11:30:52.561Z,47.20
2019-01-23T11:33:32.825Z,48.00
2019-01-23T11:36:13.000Z,47.40
2019-01-23T11:38:52.925Z,47.50
2019-01-23T11:41:33.226Z,47.10
2019-01-23T11:44:14.189Z,47.00
2019-01-23T11:46:54.440Z,46.80
2019-01-23T11:49:34.436Z,46.70
2019-01-23T11:52:14.565Z,46.70
2019-01-23T11:54:54.625Z,47.40
2019-01-23T11:57:34.887Z,47.00
2019-01-23T12:00:14.921Z,47.60
2019-01-23T12:02:55.360Z,47.80
2019-01-23T12:05:35.280Z,47.60
2019-01-23T12:08:15.622Z,47.10
2019-01-23T12:10:55.504Z,46.80
2019-01-23T12:13:35.721Z,47.10
2019-01-23T12:16:15.853Z,47.10
2019-01-23T12:18:56.063Z,47.00
2019-01-23T12:21:36.321Z,47.10
2019-01-23T12:24:16.454Z,47.00
2019-01-23T12:26:56.561Z,46.80
2019-01-23T12:29:36.598Z,46.50
2019-01-23T12:32:16.839Z,46.00
2019-01-23T12:34:56.842Z,45.60
2019-01-23T12:37:36.880Z,46.20
2019-01-23T12:40:16.853Z,46.10
2019-01-23T12:42:57.126Z,46.10
2019-01-23T12:45:37.086Z,46.10
2019-01-23T12:48:17.217Z,45.60
2019-01-23T12:50:57.430Z,45.80
2019-01-23T12:53:37.512Z,46.60
2019-01-23T12:56:17.902Z,46.60
2019-01-23T12:58:57.688Z,45.70
2019-01-23T13:01:41.961Z,46.50
2019-01-23T13:04:19.773Z,46.30
2019-01-23T13:06:59.738Z,46.40
2019-01-23T13:09:39.517Z,46.60
2019-01-23T13:12:19.435Z,46.90
2019-01-23T13:14:59.436Z,46.70
2019-01-23T13:17:39.433Z,46.60
2019-01-23T13:20:19.769Z,47.10
2019-01-23T13:22:59.636Z,46.60
2019-01-23T13:25:41.073Z,47.10
2019-01-23T13:28:21.108Z,47.50
2019-01-23T13:31:01.415Z,47.20
2019-01-23T13:33:41.522Z,47.00
2019-01-23T13:36:21.477Z,46.90
2019-01-23T13:39:01.485Z,46.90
2019-01-23T13:41:43.565Z,46.70
2019-01-23T13:44:11.233Z,47.10
2019-01-23T13:46:58.371Z,47.00
2019-01-23T13:49:39.128Z,47.00
2019-01-23T13:52:19.057Z,47.60
2019-01-23T13:54:59.009Z,47.20
2019-01-23T13:57:41.949Z,47.90
2019-01-23T14:00:22.017Z,47.70
2019-01-23T14:03:02.415Z,46.80
2019-01-23T14:05:42.440Z,47.10
2019-01-23T14:08:22.612Z,46.90
2019-01-23T14:11:02.560Z,46.70
2019-01-23T14:13:42.721Z,46.30
2019-01-23T14:16:22.895Z,47.00
2019-01-23T14:19:03.026Z,47.50
2019-01-23T14:21:43.185Z,47.80
2019-01-23T14:24:10.820Z,47.60
2019-01-23T14:26:58.177Z,48.10
2019-01-23T14:29:38.441Z,47.30
2019-01-23T14:32:18.717Z,47.30
2019-01-23T14:34:58.654Z,47.70
2019-01-23T14:37:38.889Z,47.60
2019-01-23T14:40:19.020Z,47.40
2019-01-23T14:42:59.322Z,47.00
2019-01-23T14:45:39.267Z,47.30
2019-01-23T14:48:19.656Z,47.10
2019-01-23T14:50:59.803Z,47.10
2019-01-23T14:53:39.804Z,46.70
2019-01-23T14:56:20.894Z,47.70
2019-01-23T14:59:01.352Z,47.30
2019-01-23T15:01:41.205Z,47.00
2019-01-23T15:04:21.259Z,46.80
2019-01-23T15:07:01.373Z,47.40
2019-01-23T15:09:41.654Z,47.10
2019-01-23T15:12:21.853Z,47.00
2019-01-23T15:15:01.748Z,47.50
2019-01-23T15:17:41.858Z,47.80
2019-01-23T15:20:21.992Z,48.40
2019-01-23T15:23:03.238Z,47.60
2019-01-23T15:25:43.352Z,47.90
2019-01-23T15:28:23.504Z,47.40
2019-01-23T15:31:03.617Z,47.00
2019-01-23T15:33:43.889Z,47.40
2019-01-23T15:36:23.742Z,48.20
2019-01-23T15:39:04.312Z,48.00
2019-01-23T15:41:46.013Z,47.80
2019-01-23T15:44:26.235Z,48.00
2019-01-23T15:47:06.281Z,48.10
2019-01-23T15:49:46.303Z,48.40
2019-01-23T15:52:26.314Z,48.60
2019-01-23T15:55:06.292Z,48.00
2019-01-23T15:57:46.309Z,47.80
2019-01-23T16:00:26.393Z,48.10
2019-01-23T16:03:06.389Z,47.90
2019-01-23T16:09:28.169Z,48.20
2019-01-23T16:12:27.562Z,47.80
2019-01-23T16:37:30.217Z,49.70
2019-01-23T16:40:10.846Z,49.50
2019-01-23T16:43:10.589Z,49.50
2019-01-23T16:57:05.672Z,49.60
2019-01-23T17:00:05.799Z,49.50
2019-01-23T17:46:35.314Z,50.50
2019-01-23T17:49:34.741Z,50.50
2019-01-23T17:55:57.096Z,50.60
2019-01-23T17:58:56.694Z,49.10
2019-01-23T18:16:18.885Z,49.10
2019-01-23T18:24:55.006Z,49.80
2019-01-23T18:35:32.547Z,50.30
2019-01-23T18:38:13.528Z,50.00
2019-01-23T18:41:13.074Z,49.40
2019-01-23T18:54:44.228Z,49.70
2019-01-23T18:57:43.801Z,49.70
2019-01-23T19:04:10.476Z,49.50
2019-01-23T19:07:10.257Z,49.20
2019-01-23T19:13:20.029Z,50.30
2019-01-23T19:16:20.144Z,49.20
2019-01-23T19:36:50.402Z,48.90
2019-01-23T20:15:31.885Z,49.40
2019-01-23T20:18:32.115Z,50.10
2019-01-23T20:50:26.409Z,50.00
2019-01-23T20:53:26.133Z,50.00
2019-01-23T20:55:53.802Z,50.20
2019-01-23T21:13:26.271Z,50.30
2019-01-23T21:16:25.957Z,50.00
2019-01-23T21:29:32.721Z,50.00
2019-01-23T21:32:00.345Z,50.10
2019-01-23T21:48:46.601Z,50.00
2019-01-23T21:51:46.316Z,50.50
2019-01-23T21:54:27.013Z,50.00
2019-01-23T22:00:48.752Z,50.00
2019-01-23T22:03:28.841Z,49.80
2019-01-23T22:06:09.236Z,49.80
2019-01-23T22:08:49.305Z,49.90
2019-01-23T22:11:29.397Z,49.80
2019-01-23T22:14:09.625Z,49.80
2019-01-23T22:16:49.725Z,50.00
2019-01-23T22:19:29.781Z,50.00
2019-01-23T22:22:09.916Z,50.00
2019-01-23T22:24:50.166Z,49.90
2019-01-23T22:27:30.629Z,49.90
2019-01-23T22:30:10.611Z,49.80
2019-01-23T22:32:50.912Z,50.10
2019-01-23T22:35:31.100Z,49.90
2019-01-23T22:38:11.297Z,50.00
2019-01-23T22:40:51.444Z,50.00
2019-01-23T22:43:31.773Z,49.90
2019-01-23T22:46:11.993Z,50.00
2019-01-23T22:48:52.045Z,50.00
2019-01-23T22:51:31.926Z,50.20
2019-01-23T22:54:12.023Z,49.90
2019-01-23T22:56:52.276Z,50.10
2019-01-23T22:59:32.451Z,50.50
2019-01-23T23:02:12.657Z,51.90
2019-01-23T23:04:52.796Z,51.80
2019-01-23T23:07:32.837Z,53.20
2019-01-23T23:10:12.794Z,53.70
2019-01-23T23:12:53.056Z,53.70
2019-01-23T23:15:33.155Z,54.30
2019-01-23T23:18:13.306Z,54.70
2019-01-23T23:20:53.393Z,54.90
2019-01-23T23:23:33.680Z,55.30
2019-01-23T23:26:14.393Z,55.70
2019-01-23T23:28:54.874Z,55.70
2019-01-23T23:31:34.889Z,55.60
2019-01-23T23:34:14.958Z,55.70
2019-01-23T23:36:55.170Z,56.10
2019-01-23T23:39:35.289Z,56.20
2019-01-23T23:42:15.253Z,56.00
2019-01-23T23:44:55.413Z,56.30
2019-01-23T23:47:35.645Z,57.10
2019-01-23T23:50:15.692Z,56.80
2019-01-23T23:52:55.874Z,56.30
2019-01-23T23:55:35.917Z,56.40
2019-01-23T23:58:16.079Z,55.80
